Time;durP1;ratioP1;P1;durP2;ratioP2;P2;SDS_P1;SDS_P2;PMS_P1;PMS_P2;Temp;Humidity;BMP_temperature;BMP_pressure;BME280_temperature;BME280_humidity;BME280_pressure;Samples;Min_cycle;Max_cycle;Signal;HPM_P1;HPM_P2
2021/03/06 00:00:57;;;;;;;3.60;0.60;;;14.00;49.70;;;;;;4924072;29;20542;-87
2021/03/06 00:03:29;;;;;;;3.17;0.73;;;14.00;49.70;;;;;;4940136;29;20464;-86
2021/03/06 00:05:57;;;;;;;5.28;1.05;;;13.90;49.70;;;;;;4939723;28;20058;-87
2021/03/06 00:08:24;;;;;;;2.03;0.63;;;14.00;49.80;;;;;;4928310;28;20039;-86
2021/03/06 00:10:53;;;;;;;3.75;1.30;;;13.90;49.60;;;;;;4943193;29;20437;-87
2021/03/06 00:13:19;;;;;;;5.60;1.15;;;13.90;49.50;;;;;;4928484;29;20118;-86
2021/03/06 00:15:48;;;;;;;3.22;0.90;;;13.90;49.60;;;;;;4924863;29;20035;-86
2021/03/06 00:18:17;;;;;;;3.08;0.90;;;13.90;49.50;;;;;;4913313;29;20051;-86
2021/03/06 00:20:46;;;;;;;2.97;0.80;;;13.90;49.50;;;;;;4943178;28;20121;-86
2021/03/06 00:23:14;;;;;;;4.07;1.10;;;13.90;49.40;;;;;;4912553;29;20063;-86
2021/03/06 00:25:44;;;;;;;3.10;0.85;;;13.90;49.50;;;;;;4908700;29;20385;-86
2021/03/06 00:28:13;;;;;;;3.10;0.68;;;13.90;49.60;;;;;;4913474;29;20347;-87
2021/03/06 00:30:40;;;;;;;3.55;0.80;;;13.90;49.50;;;;;;4942841;29;20120;-86
2021/03/06 00:33:08;;;;;;;2.35;0.55;;;13.80;49.50;;;;;;4942405;28;20055;-86
2021/03/06 00:35:34;;;;;;;3.08;0.73;;;13.90;49.50;;;;;;4927474;29;20058;-86
2021/03/06 00:38:00;;;;;;;4.07;0.77;;;13.80;49.40;;;;;;4925822;29;20146;-88
2021/03/06 00:40:31;;;;;;;4.25;1.20;;;13.80;49.50;;;;;;4941429;29;20078;-86
2021/03/06 00:42:57;;;;;;;3.63;0.90;;;13.80;49.40;;;;;;4915397;29;20059;-86
2021/03/06 00:45:24;;;;;;;2.53;0.80;;;13.80;49.30;;;;;;4907596;29;20459;-86
2021/03/06 00:47:50;;;;;;;2.10;0.80;;;13.80;49.40;;;;;;4908254;29;20052;-86
2021/03/06 00:50:27;;;;;;;4.25;0.82;;;13.80;49.40;;;;;;4941266;29;20051;-87
2021/03/06 00:52:53;;;;;;;2.45;0.68;;;13.80;49.40;;;;;;4919875;29;20048;-86
2021/03/06 00:55:19;;;;;;;3.83;1.02;;;13.80;49.30;;;;;;4907199;29;20516;-87
2021/03/06 00:57:45;;;;;;;3.05;0.75;;;13.80;49.40;;;;;;4912262;29;20050;-86
2021/03/06 01:00:12;;;;;;;3.33;0.88;;;13.70;49.30;;;;;;4926038;28;20062;-87
2021/03/06 01:02:38;;;;;;;3.60;0.90;;;13.80;49.20;;;;;;4924946;28;20047;-86
2021/03/06 01:05:05;;;;;;;3.97;1.10;;;13.70;49.10;;;;;;4926699;29;20110;-86
2021/03/06 01:07:31;;;;;;;5.15;1.02;;;13.70;49.20;;;;;;4925443;29;20055;-86
2021/03/06 01:09:57;;;;;;;3.75;0.85;;;13.70;49.20;;;;;;4941609;29;20043;-86
2021/03/06 01:12:25;;;;;;;3.75;0.90;;;13.70;49.20;;;;;;4953987;28;20051;-86
2021/03/06 01:14:51;;;;;;;3.85;0.82;;;13.70;49.30;;;;;;4906728;29;20044;-86
2021/03/06 01:17:23;;;;;;;4.15;1.00;;;13.70;49.20;;;;;;4914649;29;20066;-86
2021/03/06 01:19:57;;;;;;;2.65;0.70;;;13.70;49.10;;;;;;4925777;29;20054;-86
2021/03/06 01:22:24;;;;;;;3.60;0.98;;;13.70;49.20;;;;;;4938382;29;20059;-86
2021/03/06 01:24:52;;;;;;;4.05;1.23;;;13.70;49.30;;;;;;4906789;29;20111;-86
2021/03/06 01:27:18;;;;;;;5.15;1.00;;;13.70;49.20;;;;;;4913815;29;20039;-87
2021/03/06 01:29:46;;;;;;;4.35;1.00;;;13.70;49.30;;;;;;4940880;28;20372;-86
2021/03/06 01:32:12;;;;;;;3.10;0.90;;;13.60;49.10;;;;;;4925556;29;20047;-87
2021/03/06 01:34:44;;;;;;;2.83;0.80;;;13.60;50.00;;;;;;4941683;29;20039;-86
2021/03/06 01:37:10;;;;;;;2.70;1.05;;;13.60;49.30;;;;;;4902667;29;668076;-86
2021/03/06 01:39:36;;;;;;;4.03;0.90;;;13.60;49.30;;;;;;4926476;29;20055;-86
2021/03/06 01:42:03;;;;;;;2.45;0.90;;;13.60;50.00;;;;;;4941379;28;20047;-86
2021/03/06 01:44:31;;;;;;;3.92;0.90;;;13.60;49.30;;;;;;4907528;29;20058;-86
2021/03/06 01:46:59;;;;;;;3.83;0.90;;;13.60;49.30;;;;;;4912055;29;20126;-86
2021/03/06 01:49:26;;;;;;;3.13;0.70;;;13.60;49.30;;;;;;4941737;29;20063;-86
2021/03/06 01:51:54;;;;;;;2.45;0.82;;;13.60;49.30;;;;;;4942211;29;20139;-86
2021/03/06 01:54:25;;;;;;;3.95;1.10;;;13.60;49.40;;;;;;4957280;28;20102;-86
2021/03/06 01:56:54;;;;;;;4.18;1.05;;;13.60;50.10;;;;;;4925702;29;20062;-86
2021/03/06 01:59:20;;;;;;;3.78;1.13;;;13.50;49.30;;;;;;4941614;29;20043;-86
2021/03/06 02:01:49;;;;;;;3.13;0.90;;;13.50;49.30;;;;;;4941864;29;20051;-86
2021/03/06 02:04:18;;;;;;;3.80;1.10;;;13.50;49.30;;;;;;4925573;29;20473;-86
2021/03/06 02:06:44;;;;;;;3.65;1.05;;;13.50;50.10;;;;;;4925410;29;20138;-86
2021/03/06 02:09:11;;;;;;;4.47;1.13;;;13.50;49.30;;;;;;4924301;28;20051;-86
2021/03/06 02:11:52;;;;;;;5.03;1.20;;;13.50;49.20;;;;;;4925297;29;20047;-86
2021/03/06 02:14:49;;;;;;;4.82;0.70;;;13.50;49.30;;;;;;4908717;29;20048;-86
2021/03/06 02:17:23;;;;;;;3.97;1.33;;;13.50;49.40;;;;;;4912796;29;20113;-86
2021/03/06 02:20:17;;;;;;;3.13;1.20;;;13.50;49.50;;;;;;4941559;28;20114;-86
2021/03/06 02:23:24;;;;;;;4.13;1.48;;;13.50;49.30;;;;;;4937819;29;21535;-86
2021/03/06 02:26:14;;;;;;;3.92;0.80;;;13.50;49.30;;;;;;4929123;28;20046;-86
2021/03/06 02:28:44;;;;;;;2.92;0.77;;;13.50;49.30;;;;;;4924529;29;20476;-86
2021/03/06 02:31:13;;;;;;;4.18;0.95;;;13.50;49.40;;;;;;4925379;29;20074;-87
2021/03/06 02:33:42;;;;;;;2.60;1.02;;;13.50;49.50;;;;;;4940776;29;20047;-86
2021/03/06 02:36:12;;;;;;;3.05;0.82;;;13.40;49.30;;;;;;4924908;28;20365;-86
2021/03/06 02:38:44;;;;;;;3.80;1.20;;;13.50;49.20;;;;;;4940141;29;20113;-86
2021/03/06 02:41:11;;;;;;;2.83;0.93;;;13.50;49.40;;;;;;4925307;29;20306;-86
2021/03/06 02:43:37;;;;;;;2.22;0.90;;;13.50;49.20;;;;;;4914971;29;20047;-86
2021/03/06 02:46:08;;;;;;;5.10;1.35;;;13.50;49.30;;;;;;4915200;29;20377;-86
2021/03/06 02:48:37;;;;;;;3.90;1.20;;;13.40;49.20;;;;;;4925169;28;20071;-87
2021/03/06 02:51:07;;;;;;;3.67;1.08;;;13.40;49.20;;;;;;4925594;28;20051;-86
2021/03/06 02:53:33;;;;;;;2.95;0.80;;;13.40;49.30;;;;;;4923744;29;20110;-86
2021/03/06 02:55:59;;;;;;;4.95;1.50;;;13.40;49.30;;;;;;4924591;29;20417;-86
2021/03/06 02:58:43;;;;;;;3.83;0.88;;;13.40;49.30;;;;;;4924950;29;20058;-86
2021/03/06 03:01:24;;;;;;;3.55;1.20;;;13.40;49.30;;;;;;4924715;29;20057;-86
2021/03/06 03:03:59;;;;;;;4.97;1.10;;;13.40;49.20;;;;;;4923558;29;20051;-86
2021/03/06 03:06:38;;;;;;;3.35;1.20;;;13.40;49.20;;;;;;4925063;29;20057;-86
2021/03/06 03:09:12;;;;;;;2.75;1.10;;;13.40;49.20;;;;;;4939882;29;20125;-86
2021/03/06 03:11:58;;;;;;;;;;;13.40;49.30;;;;;;4925169;28;20051;-86
2021/03/06 03:14:35;;;;;;;3.55;1.48;;;13.30;49.40;;;;;;4923965;29;20462;-86
2021/03/06 03:17:27;;;;;;;4.07;1.08;;;13.30;49.30;;;;;;4924828;29;20043;-86
2021/03/06 03:20:08;;;;;;;2.50;1.05;;;13.40;49.40;;;;;;4924439;29;20047;-87
2021/03/06 03:22:38;;;;;;;2.72;0.85;;;13.30;49.50;;;;;;4924519;29;20353;-86
2021/03/06 03:25:08;;;;;;;4.53;1.05;;;13.30;49.40;;;;;;4939509;29;20486;-86
2021/03/06 03:27:36;;;;;;;2.60;1.23;;;13.30;49.40;;;;;;4923883;29;20471;-86
2021/03/06 03:30:05;;;;;;;4.80;1.08;;;13.30;49.40;;;;;;4924441;29;20058;-86
2021/03/06 03:32:32;;;;;;;3.75;0.85;;;13.30;49.50;;;;;;4924120;28;20376;-86
2021/03/06 03:35:01;;;;;;;3.67;0.63;;;13.30;49.70;;;;;;4906411;29;20532;-86
2021/03/06 03:37:28;;;;;;;2.70;0.80;;;13.20;50.40;;;;;;4908737;29;20443;-86
2021/03/06 03:39:55;;;;;;;2.47;0.65;;;13.20;50.20;;;;;;4923407;29;20069;-86
2021/03/06 03:42:22;;;;;;;3.60;1.25;;;13.20;50.30;;;;;;4924174;29;20047;-86
2021/03/06 03:44:49;;;;;;;3.17;0.75;;;13.20;49.70;;;;;;4923662;29;20044;-86
2021/03/06 03:47:19;;;;;;;4.60;0.82;;;13.20;49.60;;;;;;4907006;29;20051;-86
2021/03/06 03:49:46;;;;;;;3.63;0.82;;;13.20;49.60;;;;;;4924394;29;20062;-86
2021/03/06 03:52:12;;;;;;;4.95;0.75;;;13.20;49.60;;;;;;4924541;29;20051;-86
2021/03/06 03:54:44;;;;;;;5.03;0.88;;;13.20;49.60;;;;;;4910271;29;20326;-86
2021/03/06 03:57:12;;;;;;;3.50;0.88;;;13.20;49.60;;;;;;4906642;29;20058;-86
2021/03/06 03:59:38;;;;;;;3.83;0.90;;;13.20;50.00;;;;;;4924813;29;20051;-86
2021/03/06 04:02:04;;;;;;;3.22;0.75;;;13.20;50.30;;;;;;4923694;28;20483;-86
2021/03/06 04:04:32;;;;;;;4.13;0.60;;;13.20;50.50;;;;;;4923499;29;20047;-86
2021/03/06 04:07:01;;;;;;;3.30;0.77;;;13.20;50.40;;;;;;4924727;29;20047;-86
2021/03/06 04:09:28;;;;;;;3.20;0.68;;;13.10;50.50;;;;;;4924111;29;20061;-86
2021/03/06 04:11:54;;;;;;;2.10;0.63;;;13.10;50.50;;;;;;4923858;29;20106;-86
2021/03/06 04:14:21;;;;;;;1.75;0.60;;;13.10;50.40;;;;;;4922854;28;20047;-86
2021/03/06 04:16:49;;;;;;;4.60;0.90;;;13.10;50.30;;;;;;4924060;29;20047;-86
2021/03/06 04:19:15;;;;;;;2.60;0.60;;;13.10;50.40;;;;;;4919635;29;20135;-86
2021/03/06 04:21:41;;;;;;;2.33;0.70;;;13.10;50.30;;;;;;4896617;29;20147;-86
2021/03/06 04:24:09;;;;;;;2.53;0.55;;;13.10;50.30;;;;;;4901739;29;20131;-86
2021/03/06 04:26:35;;;;;;;3.33;0.73;;;13.10;50.30;;;;;;4900586;29;20063;-86
2021/03/06 04:29:01;;;;;;;3.38;0.60;;;13.10;50.50;;;;;;4900696;29;20539;-86
2021/03/06 04:31:27;;;;;;;4.05;0.70;;;13.10;51.00;;;;;;4900598;29;20048;-86
2021/03/06 04:33:53;;;;;;;5.20;1.00;;;13.10;51.00;;;;;;4900871;29;20381;-86
2021/03/06 04:36:19;;;;;;;2.70;1.00;;;13.10;50.90;;;;;;4900831;29;20048;-86
2021/03/06 04:38:45;;;;;;;2.28;0.60;;;13.10;50.90;;;;;;4900274;29;20052;-86
2021/03/06 04:41:11;;;;;;;3.28;0.70;;;13.10;50.90;;;;;;4900916;29;20195;-86
2021/03/06 04:43:37;;;;;;;2.55;0.50;;;13.10;50.80;;;;;;4919848;28;20055;-86
2021/03/06 04:46:03;;;;;;;2.30;0.50;;;13.10;50.80;;;;;;4923808;29;20051;-86
2021/03/06 04:48:29;;;;;;;2.10;0.30;;;13.10;50.80;;;;;;4923652;29;20137;-86
2021/03/06 04:50:55;;;;;;;2.13;0.52;;;13.10;50.80;;;;;;4922939;28;20138;-86
2021/03/06 04:53:21;;;;;;;2.60;0.57;;;13.00;50.60;;;;;;4924688;29;20169;-86
2021/03/06 04:55:47;;;;;;;3.05;0.70;;;13.10;50.70;;;;;;4910543;29;20067;-85
2021/03/06 04:58:13;;;;;;;3.42;0.68;;;13.10;50.20;;;;;;4908404;29;20047;-80
2021/03/06 05:00:39;;;;;;;4.72;1.05;;;13.10;49.40;;;;;;4957825;28;20070;-80
2021/03/06 05:03:05;;;;;;;4.03;0.50;;;13.10;49.10;;;;;;4974868;28;20504;-78
2021/03/06 05:05:31;;;;;;;7.20;0.80;;;13.10;49.00;;;;;;4958692;28;20047;-82
2021/03/06 05:08:00;;;;;;;4.13;1.15;;;13.10;49.40;;;;;;4943078;29;20368;-81
2021/03/06 05:10:25;;;;;;;6.53;0.75;;;13.20;49.70;;;;;;4943021;29;20039;-80
2021/03/06 05:12:51;;;;;;;2.65;0.50;;;13.20;49.70;;;;;;4942865;29;20050;-80
2021/03/06 05:15:17;;;;;;;5.35;0.80;;;13.30;49.90;;;;;;4959329;28;20047;-81
2021/03/06 05:17:46;;;;;;;5.68;0.70;;;13.30;50.80;;;;;;4959360;28;20051;-89
2021/03/06 05:20:12;;;;;;;5.90;0.80;;;13.30;51.70;;;;;;4927092;29;20459;-85
2021/03/06 05:22:38;;;;;;;4.82;0.70;;;13.40;52.40;;;;;;4941824;29;20456;-85
2021/03/06 05:25:05;;;;;;;3.33;0.57;;;13.40;53.50;;;;;;4924717;29;20062;-86
2021/03/06 05:27:36;;;;;;;7.32;0.88;;;13.50;53.90;;;;;;4926003;29;20052;-84
2021/03/06 05:30:06;;;;;;;3.97;1.00;;;13.60;54.70;;;;;;4908295;29;20059;-85
2021/03/06 05:32:54;;;;;;;16.98;2.25;;;13.60;54.00;;;;;;4923323;29;20442;-89
2021/03/06 05:35:44;;;;;;;9.63;1.38;;;13.60;53.70;;;;;;4909060;29;20101;-86
2021/03/06 05:38:30;;;;;;;12.13;1.38;;;13.60;54.00;;;;;;4906252;29;20051;-85
2021/03/06 05:40:57;;;;;;;11.35;1.02;;;13.60;54.30;;;;;;4907525;29;20056;-84
2021/03/06 05:43:51;;;;;;;6.30;0.95;;;13.70;54.60;;;;;;4923141;29;20106;-87
2021/03/06 05:46:30;;;;;;;20.33;2.28;;;13.80;55.30;;;;;;4957871;28;20458;-86
2021/03/06 05:49:07;;;;;;;5.65;1.30;;;13.90;56.00;;;;;;4957764;28;20102;-86
2021/03/06 05:52:16;;;;;;;6.97;1.10;;;14.00;55.70;;;;;;4958703;28;20051;-89
2021/03/06 05:55:01;;;;;;;8.77;1.38;;;14.10;54.30;;;;;;4926059;29;20058;-91
2021/03/06 05:57:27;;;;;;;8.40;1.50;;;14.20;55.40;;;;;;4925929;29;20055;-84
2021/03/06 05:59:54;;;;;;;5.68;1.35;;;14.20;55.40;;;;;;4957786;28;20445;-86
2021/03/06 06:02:21;;;;;;;7.75;0.93;;;14.30;55.40;;;;;;4957754;28;20039;-85
2021/03/06 06:04:47;;;;;;;6.93;1.00;;;14.40;55.20;;;;;;4931796;29;20055;-84
2021/03/06 06:07:17;;;;;;;3.95;0.95;;;14.40;55.10;;;;;;4917127;28;20063;-84
2021/03/06 06:09:47;;;;;;;5.90;0.93;;;14.50;55.20;;;;;;4925501;29;20044;-86
2021/03/06 06:12:12;;;;;;;5.47;0.98;;;14.50;55.10;;;;;;4941939;29;20051;-82
2021/03/06 06:14:43;;;;;;;5.35;0.82;;;14.60;55.30;;;;;;4956376;29;20484;-90
2021/03/06 06:17:34;;;;;;;7.80;1.20;;;14.70;55.60;;;;;;4941090;29;20065;-86
2021/03/06 06:20:27;;;;;;;7.30;1.02;;;14.80;56.00;;;;;;4941619;29;20062;-91
2021/03/06 06:23:23;;;;;;;9.20;1.30;;;14.90;55.80;;;;;;4958340;28;20043;-89
2021/03/06 06:26:12;;;;;;;4.05;1.05;;;15.00;55.90;;;;;;4936513;28;20461;-90
2021/03/06 06:29:13;;;;;;;4.47;1.10;;;15.00;55.70;;;;;;4925186;29;20117;-87
2021/03/06 06:32:38;;;;;;;7.97;1.30;;;15.10;55.60;;;;;;4918463;29;20055;-88
2021/03/06 06:35:14;;;;;;;5.13;0.88;;;15.10;55.30;;;;;;4914885;29;20427;-89
2021/03/06 06:37:54;;;;;;;3.33;0.82;;;15.20;55.60;;;;;;4920475;29;20058;-87
2021/03/06 06:40:24;;;;;;;7.53;1.15;;;15.20;55.70;;;;;;4941700;28;20047;-88
2021/03/06 06:43:34;;;;;;;4.30;0.68;;;15.30;55.70;;;;;;4940114;29;20071;-89
2021/03/06 06:46:29;;;;;;;2.95;0.55;;;15.30;55.50;;;;;;4829553;29;20084;-88
2021/03/06 06:49:06;;;;;;;4.25;0.50;;;15.40;55.70;;;;;;4878347;29;20053;-84
2021/03/06 06:52:12;;;;;;;4.50;0.77;;;15.40;55.70;;;;;;4921686;29;20456;-90
2021/03/06 06:55:51;;;;;;;3.90;0.80;;;15.50;55.60;;;;;;4907522;29;20043;-90
2021/03/06 06:58:42;;;;;;;4.25;0.80;;;15.50;55.60;;;;;;4922042;29;20400;-82
2021/03/06 07:01:39;;;;;;;4.53;0.80;;;15.50;55.70;;;;;;4936881;29;20051;-89
2021/03/06 07:09:15;;;;;;;;;;;;;;;;;;;;;
2021/03/06 07:31:19;;;;;;;3.15;0.60;;;15.80;55.30;;;;;;4910120;29;20135;-87
2021/03/06 07:33:45;;;;;;;4.55;0.70;;;15.90;55.60;;;;;;4911317;29;20040;-82
2021/03/06 07:36:12;;;;;;;8.48;0.82;;;15.90;55.70;;;;;;4915968;29;20482;-78
2021/03/06 07:38:39;;;;;;;8.57;0.68;;;16.00;55.80;;;;;;4977488;28;20107;-80
2021/03/06 07:41:15;;;;;;;3.78;0.50;;;16.00;56.00;;;;;;4986553;28;20129;-81
2021/03/06 07:43:43;;;;;;;6.60;0.90;;;16.00;55.90;;;;;;4936297;28;20138;-82
2021/03/06 07:46:12;;;;;;;4.82;0.52;;;16.00;54.10;;;;;;4953394;29;20138;-84
2021/03/06 07:48:42;;;;;;;9.32;0.88;;;15.90;52.30;;;;;;4941904;29;20448;-72
2021/03/06 07:51:09;;;;;;;7.93;0.70;;;15.80;53.50;;;;;;4972593;28;20062;-73
2021/03/06 07:53:36;;;;;;;7.05;0.93;;;15.80;54.20;;;;;;4968798;28;20500;-72
2021/03/06 07:56:05;;;;;;;7.55;0.63;;;15.80;54.50;;;;;;4951271;28;20063;-75
2021/03/06 07:58:52;;;;;;;11.25;1.27;;;15.90;54.40;;;;;;4956499;28;20102;-72
2021/03/06 08:01:31;;;;;;;8.10;0.45;;;15.90;54.30;;;;;;4957657;28;20051;-73
2021/03/06 08:04:01;;;;;;;6.93;0.60;;;15.90;54.30;;;;;;4955133;28;20051;-73
2021/03/06 08:06:28;;;;;;;5.07;0.65;;;16.00;54.40;;;;;;4954714;29;20039;-72
2021/03/06 08:08:59;;;;;;;7.65;0.75;;;16.00;54.40;;;;;;5001904;28;20054;-72
2021/03/06 08:11:33;;;;;;;4.60;0.73;;;16.10;54.40;;;;;;5014583;28;20041;-73
2021/03/06 08:14:02;;;;;;;6.03;0.50;;;16.10;54.40;;;;;;4996143;28;20081;-72
2021/03/06 08:16:27;;;;;;;6.90;0.45;;;16.10;54.50;;;;;;5014603;28;20066;-72
2021/03/06 08:19:01;;;;;;;2.38;0.40;;;16.10;54.60;;;;;;5014646;28;20073;-72
2021/03/06 08:21:40;;;;;;;3.10;0.65;;;16.10;54.70;;;;;;5014500;28;20081;-72
2021/03/06 08:24:21;;;;;;;4.30;0.50;;;16.10;54.70;;;;;;5013184;28;20498;-72
2021/03/06 08:27:02;;;;;;;4.03;0.50;;;16.10;54.60;;;;;;5015751;28;20042;-73
2021/03/06 08:29:28;;;;;;;6.18;0.43;;;16.20;54.70;;;;;;5017466;28;20053;-79
2021/03/06 08:32:03;;;;;;;5.00;0.75;;;16.20;54.80;;;;;;5018337;28;20046;-73
2021/03/06 08:34:35;;;;;;;2.00;0.30;;;16.20;54.70;;;;;;5007462;28;20041;-73
2021/03/06 08:37:16;;;;;;;5.57;0.30;;;16.30;54.80;;;;;;5018347;28;20042;-73
2021/03/06 08:39:53;;;;;;;2.03;0.50;;;16.30;54.60;;;;;;4998668;28;20395;-72
2021/03/06 08:42:21;;;;;;;5.63;0.43;;;16.30;54.50;;;;;;5002738;28;20042;-73
2021/03/06 08:44:48;;;;;;;3.05;0.70;;;16.30;55.20;;;;;;5016412;28;20387;-77
2021/03/06 08:47:28;;;;;;;2.83;0.28;;;16.30;53.90;;;;;;5017926;28;20038;-74
2021/03/06 08:49:56;;;;;;;3.60;0.65;;;16.30;54.00;;;;;;5018855;28;20347;-73
2021/03/06 08:52:24;;;;;;;3.65;0.45;;;16.30;54.20;;;;;;5001689;28;20046;-77
2021/03/06 08:54:50;;;;;;;8.50;0.82;;;16.30;54.20;;;;;;5014342;28;20080;-79
2021/03/06 08:57:39;;;;;;;7.07;0.55;;;16.20;52.90;;;;;;5017912;28;20084;-82
2021/03/06 09:00:16;;;;;;;7.90;0.65;;;16.10;53.00;;;;;;4983879;28;20045;-80
2021/03/06 09:02:42;;;;;;;6.53;0.60;;;16.10;53.20;;;;;;4982979;28;20042;-81
2021/03/06 09:05:28;;;;;;;5.57;0.45;;;16.10;53.50;;;;;;4981369;28;20038;-82
2021/03/06 09:07:56;;;;;;;2.65;0.30;;;16.20;53.40;;;;;;4981942;28;20062;-82
2021/03/06 09:10:23;;;;;;;2.20;0.65;;;16.20;53.50;;;;;;4982222;28;20050;-81
2021/03/06 09:12:59;;;;;;;4.10;0.40;;;16.20;53.40;;;;;;4996154;28;20460;-86
2021/03/06 09:15:59;;;;;;;;;;;;;;;;;;;;;
2021/03/06 09:22:03;;;;;;;4.65;0.47;;;16.30;53.60;;;;;;4939468;28;20046;-81
2021/03/06 09:24:47;;;;;;;5.97;0.50;;;16.30;53.90;;;;;;5017348;28;20128;-80
2021/03/06 09:27:14;;;;;;;9.13;0.40;;;16.30;53.80;;;;;;4999157;28;20038;-81
2021/03/06 09:29:41;;;;;;;4.45;0.45;;;16.40;54.00;;;;;;5016935;28;20045;-80
2021/03/06 09:32:08;;;;;;;3.65;0.38;;;16.40;54.00;;;;;;4992233;28;20038;-77
2021/03/06 09:34:34;;;;;;;4.03;0.50;;;16.40;52.20;;;;;;4964916;28;20050;-79
2021/03/06 09:37:15;;;;;;;5.35;0.43;;;16.30;50.90;;;;;;4993129;28;20038;-77
2021/03/06 09:39:45;;;;;;;3.25;0.30;;;16.20;50.70;;;;;;4964277;28;20057;-88
2021/03/06 09:42:18;;;;;;;0.93;0.40;;;16.10;49.30;;;;;;4977313;28;20443;-76
2021/03/06 09:44:50;;;;;;;4.47;0.80;;;16.00;48.90;;;;;;5017130;28;20048;-77
2021/03/06 09:47:22;;;;;;;5.10;1.38;;;15.90;51.40;;;;;;5017052;28;20045;-81
2021/03/06 09:49:48;;;;;;;5.07;0.77;;;15.90;52.60;;;;;;5017003;28;20037;-79
2021/03/06 09:52:14;;;;;;;3.15;0.82;;;15.90;53.10;;;;;;5016537;28;20127;-80
2021/03/06 09:54:40;;;;;;;5.75;1.65;;;15.90;53.80;;;;;;5007788;28;20100;-76
2021/03/06 09:57:06;;;;;;;3.72;0.80;;;15.90;54.50;;;;;;5016589;28;20040;-80
2021/03/06 09:59:37;;;;;;;4.00;1.00;;;15.90;54.40;;;;;;5017015;28;20056;-79
2021/03/06 10:02:08;;;;;;;12.82;1.80;;;16.00;54.30;;;;;;5015654;28;20041;-78
2021/03/06 10:04:34;;;;;;;5.60;1.33;;;16.00;55.00;;;;;;5013684;28;20046;-77
2021/03/06 10:07:06;;;;;;;3.63;0.93;;;16.00;54.40;;;;;;5016701;28;20042;-81
2021/03/06 10:09:32;;;;;;;4.18;0.88;;;15.90;53.80;;;;;;4998998;28;20054;-83
2021/03/06 10:12:07;;;;;;;1.85;0.60;;;15.90;53.90;;;;;;4998767;28;20041;-82
2021/03/06 10:14:33;;;;;;;5.97;0.50;;;15.90;54.20;;;;;;5016741;28;20128;-82
2021/03/06 10:17:02;;;;;;;1.20;0.40;;;15.90;54.40;;;;;;4999540;28;20125;-82
2021/03/06 10:19:31;;;;;;;4.82;0.30;;;15.90;54.60;;;;;;4998975;28;20080;-82
2021/03/06 10:22:01;;;;;;;0.70;0.20;;;16.00;54.80;;;;;;4992889;28;20112;-81
2021/03/06 10:24:27;;;;;;;2.45;0.30;;;16.00;55.00;;;;;;4983001;28;20053;-82
2021/03/06 10:27:03;;;;;;;1.80;0.50;;;16.00;55.20;;;;;;4999664;28;20042;-82
2021/03/06 10:29:29;;;;;;;1.20;0.30;;;16.00;55.30;;;;;;4999023;28;20112;-82
2021/03/06 10:32:03;;;;;;;1.27;0.47;;;16.10;55.50;;;;;;4998201;28;20046;-83
2021/03/06 10:34:33;;;;;;;3.08;0.50;;;16.10;55.60;;;;;;4998983;28;20062;-82
2021/03/06 10:37:10;;;;;;;1.63;0.30;;;16.10;55.80;;;;;;4998922;28;20046;-82
2021/03/06 10:39:55;;;;;;;4.78;0.30;;;16.20;55.80;;;;;;4982447;28;20057;-83
2021/03/06 10:42:46;;;;;;;1.50;0.30;;;16.20;56.10;;;;;;4993737;28;20441;-82
2021/03/06 10:45:29;;;;;;;4.10;0.60;;;16.30;56.30;;;;;;5012423;28;20058;-81
2021/03/06 10:48:01;;;;;;;7.03;0.50;;;16.30;56.20;;;;;;4998927;28;20116;-81
2021/03/06 10:50:32;;;;;;;2.70;0.50;;;16.40;56.10;;;;;;5014518;28;20045;-80
2021/03/06 10:53:18;;;;;;;7.25;0.63;;;16.40;55.10;;;;;;4980689;28;20042;-80
2021/03/06 10:55:46;;;;;;;4.32;0.40;;;16.40;55.20;;;;;;5001669;28;20053;-81
2021/03/06 10:58:19;;;;;;;8.07;0.50;;;16.50;55.50;;;;;;5011328;28;20406;-76
2021/03/06 11:00:59;;;;;;;19.63;1.45;;;16.50;54.90;;;;;;5013980;28;20057;-78
2021/03/06 11:03:38;;;;;;;15.52;0.80;;;16.40;54.80;;;;;;5011027;28;20046;-78
2021/03/06 11:06:04;;;;;;;4.78;0.28;;;16.40;53.40;;;;;;5012917;28;20432;-78
2021/03/06 11:08:30;;;;;;;9.38;0.40;;;16.30;51.60;;;;;;5007290;28;20050;-79
2021/03/06 11:10:56;;;;;;;3.50;0.43;;;16.20;52.50;;;;;;4989843;28;20052;-79
2021/03/06 11:13:22;;;;;;;6.32;0.47;;;16.20;53.20;;;;;;5003920;28;20538;-79
2021/03/06 11:15:49;;;;;;;7.72;0.55;;;16.10;53.60;;;;;;5005641;28;20073;-79
2021/03/06 11:18:15;;;;;;;1.33;0.30;;;16.20;53.90;;;;;;5004058;28;20406;-79
2021/03/06 11:20:42;;;;;;;4.03;0.80;;;16.20;54.10;;;;;;5014094;28;20049;-80
2021/03/06 11:23:08;;;;;;;7.38;0.50;;;16.20;54.20;;;;;;5014311;28;20046;-79
2021/03/06 11:25:34;;;;;;;2.47;0.30;;;16.10;54.20;;;;;;5005307;28;20128;-79
2021/03/06 11:28:05;;;;;;;6.47;0.30;;;16.10;54.20;;;;;;5015330;28;20041;-78
2021/03/06 11:30:32;;;;;;;3.28;0.52;;;16.20;54.20;;;;;;5014710;28;20278;-79
2021/03/06 11:32:59;;;;;;;2.80;0.20;;;16.10;54.20;;;;;;5014133;28;20439;-78
2021/03/06 11:35:26;;;;;;;5.68;0.70;;;16.20;54.20;;;;;;5013876;28;20384;-78
2021/03/06 11:37:52;;;;;;;3.30;0.40;;;16.10;54.10;;;;;;5014520;28;20049;-79
2021/03/06 11:40:21;;;;;;;1.48;0.32;;;16.10;54.10;;;;;;5014886;28;20422;-78
2021/03/06 11:42:47;;;;;;;1.70;0.10;;;16.10;54.10;;;;;;5014927;28;20137;-79
2021/03/06 11:45:15;;;;;;;2.00;0.10;;;16.10;54.10;;;;;;5014281;28;20137;-78
2021/03/06 11:47:41;;;;;;;1.50;0.50;;;16.10;54.10;;;;;;5015313;28;20045;-78
2021/03/06 11:50:09;;;;;;;1.13;0.30;;;16.10;54.10;;;;;;5014537;28;20072;-78
2021/03/06 11:52:35;;;;;;;4.63;0.30;;;16.10;54.10;;;;;;5014445;28;20046;-79
2021/03/06 11:55:01;;;;;;;2.47;0.30;;;16.10;54.20;;;;;;5013815;28;20050;-79
2021/03/06 11:57:27;;;;;;;0.68;0.10;;;16.00;54.10;;;;;;5013318;28;20458;-79
2021/03/06 11:59:54;;;;;;;2.35;0.35;;;16.00;54.10;;;;;;5014036;28;20050;-78
2021/03/06 12:02:21;;;;;;;1.83;0.20;;;16.10;54.20;;;;;;5017328;28;20468;-78
2021/03/06 12:04:47;;;;;;;1.85;0.30;;;16.00;54.20;;;;;;5017744;28;20038;-79
2021/03/06 12:07:13;;;;;;;2.05;0.20;;;16.00;54.20;;;;;;5018262;28;20116;-78
2021/03/06 12:09:39;;;;;;;2.03;0.20;;;16.00;54.30;;;;;;5018476;28;20076;-79
2021/03/06 12:12:06;;;;;;;2.35;0.20;;;16.00;54.20;;;;;;5018536;28;20069;-78
2021/03/06 12:14:32;;;;;;;2.42;0.20;;;16.00;54.20;;;;;;5018247;28;20054;-79
2021/03/06 12:16:58;;;;;;;1.83;0.57;;;16.00;54.20;;;;;;5017845;28;20363;-78
2021/03/06 12:19:24;;;;;;;1.67;0.20;;;16.00;54.20;;;;;;5019001;28;20074;-78
2021/03/06 12:21:50;;;;;;;1.65;0.30;;;16.00;54.20;;;;;;5017275;28;20054;-78
2021/03/06 12:24:16;;;;;;;1.85;0.32;;;16.00;54.20;;;;;;5016503;28;20152;-79
2021/03/06 12:26:41;;;;;;;1.40;0.40;;;16.00;54.20;;;;;;5018771;28;20050;-78
2021/03/06 12:29:07;;;;;;;1.65;0.13;;;16.00;54.20;;;;;;5018346;28;20467;-79
2021/03/06 12:31:33;;;;;;;1.50;0.20;;;15.90;54.10;;;;;;5017809;28;20092;-79
2021/03/06 12:34:00;;;;;;;3.28;0.30;;;15.90;54.10;;;;;;5018513;28;20042;-78
2021/03/06 12:36:26;;;;;;;1.58;0.22;;;15.90;54.10;;;;;;5017035;28;20058;-79
2021/03/06 12:38:52;;;;;;;1.23;0.15;;;15.90;54.20;;;;;;4999826;28;20060;-79
2021/03/06 12:41:18;;;;;;;0.93;0.30;;;15.90;54.20;;;;;;5015866;28;20052;-78
2021/03/06 12:43:44;;;;;;;0.98;0.15;;;15.90;54.00;;;;;;5017875;28;20045;-79
2021/03/06 12:46:10;;;;;;;1.95;0.82;;;15.90;54.10;;;;;;5018632;28;20045;-78
2021/03/06 12:48:35;;;;;;;2.03;0.20;;;15.90;54.10;;;;;;5018014;28;20046;-78
2021/03/06 12:51:01;;;;;;;0.75;0.20;;;15.90;54.00;;;;;;5017331;28;20076;-79
2021/03/06 12:53:27;;;;;;;1.15;0.15;;;15.90;53.90;;;;;;5017440;28;20348;-78
2021/03/06 12:55:53;;;;;;;1.50;0.30;;;15.90;54.00;;;;;;5014845;28;20075;-79
2021/03/06 12:58:19;;;;;;;2.13;0.52;;;15.80;53.80;;;;;;5018239;28;20049;-78
2021/03/06 13:00:44;;;;;;;1.50;0.28;;;15.80;53.70;;;;;;5016671;28;20051;-78
2021/03/06 13:03:11;;;;;;;2.10;0.20;;;15.80;53.90;;;;;;5017286;28;20070;-78
2021/03/06 13:05:36;;;;;;;0.95;0.20;;;15.80;53.90;;;;;;5016651;28;20073;-78
2021/03/06 13:08:02;;;;;;;1.02;0.20;;;15.80;53.80;;;;;;5018399;28;20046;-78
2021/03/06 13:10:28;;;;;;;2.05;0.40;;;15.80;53.70;;;;;;5015060;28;20356;-79
2021/03/06 13:12:54;;;;;;;1.35;0.13;;;15.80;53.60;;;;;;5016306;28;20049;-78
2021/03/06 13:15:20;;;;;;;2.13;0.50;;;15.80;53.70;;;;;;5017822;28;20129;-78
2021/03/06 13:17:46;;;;;;;1.30;0.20;;;15.70;53.80;;;;;;5017231;28;20503;-78
2021/03/06 13:20:12;;;;;;;2.03;0.20;;;15.80;53.80;;;;;;5017962;28;20057;-78
2021/03/06 13:22:38;;;;;;;2.80;0.30;;;15.70;53.70;;;;;;5014103;28;20046;-79
2021/03/06 13:25:05;;;;;;;1.38;0.20;;;15.70;53.60;;;;;;5017104;28;20053;-79
2021/03/06 13:27:31;;;;;;;1.55;0.20;;;15.70;53.50;;;;;;5011769;28;20049;-78
2021/03/06 13:29:57;;;;;;;0.25;0.10;;;15.70;53.60;;;;;;5017112;28;20145;-78
2021/03/06 13:32:23;;;;;;;1.48;0.25;;;15.70;53.60;;;;;;5016737;28;20125;-78
2021/03/06 13:34:49;;;;;;;1.05;0.17;;;15.70;53.50;;;;;;5017947;28;20049;-78
2021/03/06 13:37:16;;;;;;;1.90;0.40;;;15.70;53.50;;;;;;5000424;28;20098;-79